createdAt,value
2018-06-21T00:00:57.301Z,101782.67
2018-06-21T00:03:59.347Z,101786.73
2018-06-21T00:07:01.453Z,101792.49
2018-06-21T00:10:03.534Z,101798.69
2018-06-21T00:13:05.540Z,101795.72
2018-06-21T00:16:07.590Z,101798.19
2018-06-21T00:19:09.708Z,101802.08
2018-06-21T00:22:11.796Z,101791.54
2018-06-21T00:25:13.961Z,101795.90
2018-06-21T00:28:16.035Z,101799.89
2018-06-21T00:31:18.071Z,101792.91
2018-06-21T00:34:20.311Z,101786.31
2018-06-21T00:37:22.630Z,101772.95
2018-06-21T00:40:24.713Z,101787.00
2018-06-21T00:43:26.746Z,101784.50
2018-06-21T00:46:29.867Z,101785.06
2018-06-21T00:49:31.767Z,101778.06
2018-06-21T00:52:33.802Z,101769.01
2018-06-21T00:55:47.602Z,101769.00
2018-06-21T00:58:49.715Z,101767.90
2018-06-21T01:01:51.746Z,101765.63
2018-06-21T01:04:53.834Z,101766.11
2018-06-21T01:07:55.907Z,101759.99
2018-06-21T01:10:59.139Z,101762.18
2018-06-21T01:14:01.149Z,101756.01
2018-06-21T01:17:03.187Z,101745.77
2018-06-21T01:20:05.119Z,101747.32
2018-06-21T01:23:07.187Z,101745.85
2018-06-21T01:26:09.236Z,101743.15
2018-06-21T01:29:11.314Z,101748.91
2018-06-21T01:32:13.422Z,101748.77
2018-06-21T01:35:15.577Z,101744.31
2018-06-21T01:38:17.614Z,101744.78
2018-06-21T01:41:19.703Z,101745.69
2018-06-21T01:44:21.784Z,101739.89
2018-06-21T01:47:23.859Z,101731.40
2018-06-21T01:50:25.930Z,101732.53
2018-06-21T01:53:27.991Z,101734.03
2018-06-21T01:56:30.533Z,101737.89
2018-06-21T01:59:32.487Z,101740.77
2018-06-21T02:02:34.584Z,101738.33
2018-06-21T02:05:36.636Z,101742.44
2018-06-21T02:08:38.720Z,101741.50
2018-06-21T02:11:40.782Z,101743.25
2018-06-21T02:14:42.726Z,101738.00
2018-06-21T02:17:45.838Z,101736.27
2018-06-21T02:20:47.933Z,101728.96
2018-06-21T02:23:50.995Z,101731.43
2018-06-21T02:26:53.090Z,101722.52
2018-06-21T02:29:54.987Z,101723.77
2018-06-21T02:32:57.020Z,101718.69
2018-06-21T02:35:59.106Z,101719.75
2018-06-21T02:39:01.511Z,101721.04
2018-06-21T02:42:03.621Z,101721.99
2018-06-21T02:45:05.719Z,101716.41
2018-06-21T02:48:07.780Z,101716.86
2018-06-21T02:51:09.842Z,101716.36
2018-06-21T02:54:12.023Z,101705.28
2018-06-21T02:57:13.923Z,101709.72
2018-06-21T03:00:15.893Z,101707.50
2018-06-21T03:03:17.994Z,101706.91
2018-06-21T03:06:20.089Z,101704.54
2018-06-21T03:09:23.171Z,101708.28
2018-06-21T03:12:25.220Z,101706.39
2018-06-21T03:15:27.306Z,101706.70
2018-06-21T03:18:29.409Z,101709.65
2018-06-21T03:21:31.771Z,101709.99
2018-06-21T03:24:33.814Z,101718.52
2018-06-21T03:27:35.900Z,101725.68
2018-06-21T03:30:37.936Z,101737.07
2018-06-21T03:33:39.955Z,101746.28
2018-06-21T03:36:42.082Z,101739.98
2018-06-21T03:39:44.151Z,101751.66
2018-06-21T03:42:46.100Z,101745.76
2018-06-21T03:45:48.195Z,101727.72
2018-06-21T03:48:50.258Z,101727.24
2018-06-21T03:51:52.363Z,101729.85
2018-06-21T03:54:54.568Z,101726.96
2018-06-21T03:57:56.559Z,101724.25
2018-06-21T04:00:58.663Z,101726.62
2018-06-21T04:04:01.814Z,101730.79
2018-06-21T04:07:04.132Z,101723.80
2018-06-21T04:10:06.616Z,101723.13
2018-06-21T04:13:08.680Z,101732.04
2018-06-21T04:16:10.730Z,101726.20
2018-06-21T04:19:12.895Z,101726.41
2018-06-21T04:22:14.988Z,101729.82
2018-06-21T04:25:17.028Z,101728.16
2018-06-21T04:28:18.976Z,101720.83
2018-06-21T04:31:21.058Z,101723.06
2018-06-21T04:34:24.202Z,101735.46
2018-06-21T04:37:26.235Z,101729.16
2018-06-21T04:40:28.291Z,101724.53
2018-06-21T04:43:31.323Z,101728.49
2018-06-21T04:46:33.343Z,101729.92
2018-06-21T04:49:35.461Z,101728.21
2018-06-21T04:52:37.536Z,101730.10
2018-06-21T04:55:39.536Z,101735.04
2018-06-21T04:58:41.455Z,101735.54
2018-06-21T05:01:43.475Z,101738.44
2018-06-21T05:04:45.465Z,101739.08
2018-06-21T05:07:47.795Z,101728.43
2018-06-21T05:10:49.990Z,101729.63
2018-06-21T05:13:51.950Z,101731.79
2018-06-21T05:16:55.394Z,101729.38
2018-06-21T05:19:57.461Z,101734.99
2018-06-21T05:22:59.511Z,101727.36
2018-06-21T05:26:01.446Z,101735.45
2018-06-21T05:29:03.504Z,101734.91
2018-06-21T05:32:05.705Z,101741.55
2018-06-21T05:35:07.786Z,101734.48
2018-06-21T05:38:09.844Z,101735.44
2018-06-21T05:41:11.939Z,101728.88
2018-06-21T05:44:13.883Z,101728.11
2018-06-21T05:47:15.900Z,101722.19
2018-06-21T05:50:18.077Z,101719.76
2018-06-21T05:53:20.035Z,101715.39
2018-06-21T05:56:22.087Z,101719.90
2018-06-21T05:59:24.143Z,101719.55
2018-06-21T06:02:26.127Z,101714.32
2018-06-21T06:05:29.263Z,101717.90
2018-06-21T06:08:33.240Z,101718.64
2018-06-21T06:11:35.275Z,101712.33
2018-06-21T06:14:37.333Z,101721.37
2018-06-21T06:17:39.437Z,101716.23
2018-06-21T06:20:41.468Z,101707.33
2018-06-21T06:23:43.766Z,101703.26
2018-06-21T06:26:45.854Z,101703.16
2018-06-21T06:29:47.907Z,101708.81
2018-06-21T06:32:49.971Z,101712.67
2018-06-21T06:35:53.667Z,101710.03
2018-06-21T06:39:19.665Z,101715.20
2018-06-21T06:42:21.672Z,101719.15
2018-06-21T06:45:23.930Z,101715.83
2018-06-21T06:48:26.429Z,101714.46
2018-06-21T06:51:29.507Z,101713.77
2018-06-21T06:54:31.663Z,101717.70
2018-06-21T06:57:33.555Z,101718.86
2018-06-21T07:00:35.623Z,101723.66
2018-06-21T07:03:37.624Z,101723.50
2018-06-21T07:06:39.639Z,101722.06
2018-06-21T07:09:41.718Z,101723.33
2018-06-21T07:12:43.809Z,101723.39
2018-06-21T07:15:45.866Z,101729.48
2018-06-21T07:18:47.870Z,101729.41
2018-06-21T07:21:49.879Z,101732.84
2018-06-21T07:24:51.958Z,101737.21
2018-06-21T07:27:54.006Z,101729.47
2018-06-21T07:30:56.077Z,101736.47
2018-06-21T07:33:59.275Z,101724.17
2018-06-21T07:37:01.301Z,101733.63
2018-06-21T07:40:03.455Z,101724.43
2018-06-21T07:43:05.492Z,101730.55
2018-06-21T07:46:07.594Z,101733.06
2018-06-21T07:49:11.602Z,101729.01
2018-06-21T07:52:13.677Z,101724.33
2018-06-21T07:55:15.658Z,101726.09
2018-06-21T07:58:18.159Z,101725.82
2018-06-21T08:01:20.154Z,101730.62
2018-06-21T08:04:22.257Z,101731.56
2018-06-21T08:07:24.312Z,101732.09
2018-06-21T08:10:26.297Z,101728.34
2018-06-21T08:13:29.394Z,101725.21
2018-06-21T08:16:31.449Z,101723.29
2018-06-21T08:19:33.517Z,101724.31
2018-06-21T08:22:35.862Z,101719.38
2018-06-21T08:25:38.076Z,101720.96
2018-06-21T08:28:40.114Z,101721.90
2018-06-21T08:31:42.868Z,101725.54
2018-06-21T08:34:44.943Z,101728.89
2018-06-21T08:37:47.080Z,101733.93
2018-06-21T08:40:49.116Z,101735.38
2018-06-21T08:43:51.270Z,101736.34
2018-06-21T08:46:53.479Z,101740.92
2018-06-21T08:49:55.579Z,101737.22
2018-06-21T08:52:58.742Z,101742.49
2018-06-21T08:56:00.804Z,101744.85
2018-06-21T08:59:02.850Z,101748.54
2018-06-21T09:02:04.950Z,101741.86
2018-06-21T09:05:07.005Z,101742.16
2018-06-21T09:08:09.151Z,101745.30
2018-06-21T09:11:11.394Z,101747.97
2018-06-21T09:14:13.303Z,101748.07
2018-06-21T09:17:15.392Z,101747.25
2018-06-21T09:20:18.538Z,101748.45
2018-06-21T09:23:20.639Z,101747.26
2018-06-21T09:26:22.708Z,101747.21
2018-06-21T09:29:24.804Z,101738.43
2018-06-21T09:32:29.933Z,101737.02
2018-06-21T09:35:31.995Z,101728.32
2018-06-21T09:38:39.814Z,101735.93
2018-06-21T09:41:47.995Z,101730.52
2018-06-21T09:44:55.927Z,101737.31
2018-06-21T09:48:03.703Z,101736.90
2018-06-21T09:51:05.819Z,101734.35
2018-06-21T09:54:07.991Z,101740.08
2018-06-21T09:57:09.977Z,101745.22
2018-06-21T10:00:17.684Z,101741.96
2018-06-21T10:03:21.522Z,101741.37
2018-06-21T10:06:25.154Z,101735.44
2018-06-21T10:09:29.043Z,101736.69
2018-06-21T10:12:32.236Z,101734.77
2018-06-21T10:15:34.292Z,101736.03
2018-06-21T10:18:36.275Z,101738.40
2018-06-21T10:21:38.296Z,101723.76
2018-06-21T10:24:40.319Z,101727.66
2018-06-21T10:27:42.494Z,101722.73
2018-06-21T10:30:44.460Z,101716.86
2018-06-21T10:33:46.499Z,101720.40
2018-06-21T10:36:48.471Z,101719.72
2018-06-21T10:39:50.551Z,101712.62
2018-06-21T10:42:52.691Z,101708.44
2018-06-21T10:45:55.477Z,101711.07
2018-06-21T10:48:57.611Z,101715.37
2018-06-21T10:52:00.180Z,101716.62
2018-06-21T10:55:02.277Z,101715.09
2018-06-21T10:58:04.260Z,101717.08
2018-06-21T11:01:06.384Z,101713.90
2018-06-21T11:04:08.404Z,101723.02
2018-06-21T11:07:10.390Z,101718.79
2018-06-21T11:10:12.430Z,101718.99
2018-06-21T11:13:14.362Z,101717.47
2018-06-21T11:16:16.517Z,101710.88
2018-06-21T11:19:18.863Z,101707.56
2018-06-21T11:22:20.931Z,101708.62
2018-06-21T11:25:22.997Z,101708.05
2018-06-21T11:28:24.990Z,101713.15
2018-06-21T11:31:27.034Z,101716.87
2018-06-21T11:34:30.131Z,101719.06
2018-06-21T11:37:32.206Z,101727.08
2018-06-21T11:40:34.159Z,101730.81
2018-06-21T11:43:36.148Z,101734.88
2018-06-21T11:46:38.205Z,101724.07
2018-06-21T11:49:40.165Z,101742.72
2018-06-21T11:52:42.612Z,101741.10
2018-06-21T11:55:44.737Z,101732.46
2018-06-21T11:58:46.783Z,101737.31
2018-06-21T12:01:49.904Z,101734.89
2018-06-21T12:04:51.948Z,101734.29
2018-06-21T12:07:54.111Z,101742.96
2018-06-21T12:10:56.199Z,101772.25
2018-06-21T12:13:59.244Z,101782.12
2018-06-21T12:17:01.226Z,101778.07
2018-06-21T12:20:03.223Z,101793.86
2018-06-21T12:23:05.314Z,101799.52
2018-06-21T12:26:07.359Z,101791.28
2018-06-21T12:29:09.973Z,101809.98
2018-06-21T12:32:12.013Z,101810.87
2018-06-21T12:35:14.148Z,101804.05
2018-06-21T12:38:17.295Z,101808.31
2018-06-21T12:41:19.547Z,101808.11
2018-06-21T12:44:21.603Z,101814.10
2018-06-21T12:47:24.723Z,101804.81
2018-06-21T12:50:26.934Z,101806.00
2018-06-21T12:53:28.954Z,101809.94
2018-06-21T12:56:31.054Z,101812.30
2018-06-21T12:59:33.207Z,101818.06
2018-06-21T13:02:35.247Z,101828.55
2018-06-21T13:05:37.360Z,101836.36
2018-06-21T13:08:50.983Z,101836.31
2018-06-21T13:12:33.349Z,101841.81
2018-06-21T13:15:35.455Z,101842.11
2018-06-21T13:18:37.475Z,101836.18
2018-06-21T13:21:39.471Z,101834.38
2018-06-21T13:24:41.560Z,101840.04
2018-06-21T13:27:44.627Z,101838.78
2018-06-21T13:30:46.707Z,101831.05
2018-06-21T13:33:48.947Z,101830.44
2018-06-21T13:36:51.507Z,101828.33
2018-06-21T13:39:54.036Z,101827.33
2018-06-21T13:42:56.334Z,101826.99
2018-06-21T13:45:58.540Z,101826.97
2018-06-21T13:49:00.983Z,101831.70
2018-06-21T13:52:04.505Z,101830.13
2018-06-21T13:55:07.115Z,101822.37
2018-06-21T13:58:09.444Z,101821.79
2018-06-21T14:01:12.536Z,101824.84
2018-06-21T14:04:14.611Z,101812.58
2018-06-21T14:07:17.163Z,101812.76
2018-06-21T14:10:19.539Z,101819.04
2018-06-21T14:13:21.651Z,101824.82
2018-06-21T14:16:24.526Z,101816.61
2018-06-21T14:19:26.706Z,101812.31
2018-06-21T14:22:29.887Z,101810.65
2018-06-21T14:25:32.271Z,101809.00
2018-06-21T14:28:34.587Z,101812.49
2018-06-21T14:31:36.834Z,101802.66
2018-06-21T14:34:39.280Z,101812.86
2018-06-21T14:37:41.802Z,101805.70
2018-06-21T14:40:44.344Z,101807.29
2018-06-21T14:43:47.869Z,101814.70
2018-06-21T14:46:50.415Z,101827.00
2018-06-21T14:49:53.836Z,101825.08
2018-06-21T14:52:56.393Z,101823.70
2018-06-21T14:56:00.322Z,101833.45
2018-06-21T14:59:02.458Z,101829.75
2018-06-21T15:02:04.863Z,101834.62
2018-06-21T15:05:07.528Z,101827.13
2018-06-21T15:08:10.428Z,101830.05
2018-06-21T15:11:13.912Z,101832.12
2018-06-21T15:14:15.946Z,101839.65
2018-06-21T15:17:17.965Z,101838.23
2018-06-21T15:20:19.995Z,101842.20
2018-06-21T15:23:22.550Z,101837.55
2018-06-21T15:26:24.560Z,101841.86
2018-06-21T15:29:26.630Z,101843.73
2018-06-21T15:32:30.065Z,101841.96
2018-06-21T15:35:33.156Z,101850.12
2018-06-21T15:38:35.652Z,101852.15
2018-06-21T15:41:37.777Z,101853.78
2018-06-21T15:44:40.235Z,101854.60
2018-06-21T15:47:42.727Z,101859.90
2018-06-21T15:50:45.122Z,101859.26
2018-06-21T15:53:47.198Z,101867.84
2018-06-21T15:56:49.759Z,101871.64
2018-06-21T15:59:52.199Z,101875.14
2018-06-21T16:02:54.339Z,101887.44
2018-06-21T16:05:56.770Z,101885.98
2018-06-21T16:09:00.111Z,101890.51
2018-06-21T16:12:02.284Z,101901.12
2018-06-21T16:15:04.368Z,101908.88
2018-06-21T16:18:10.307Z,101915.75
2018-06-21T16:21:12.861Z,101916.18
2018-06-21T16:24:15.388Z,101925.24
2018-06-21T16:27:18.941Z,101928.98
2018-06-21T16:30:21.343Z,101930.81
2018-06-21T16:33:24.523Z,101930.42
2018-06-21T16:36:27.224Z,101935.85
2018-06-21T16:39:31.559Z,101937.10
2018-06-21T16:42:34.102Z,101941.04
2018-06-21T16:45:36.704Z,101943.29
2018-06-21T16:48:40.091Z,101955.42
2018-06-21T16:51:43.040Z,101961.05
2018-06-21T16:54:45.611Z,101966.97
2018-06-21T16:57:48.137Z,101974.19
2018-06-21T17:00:50.533Z,101974.19
2018-06-21T17:03:52.655Z,101975.89
2018-06-21T17:06:54.610Z,101983.09
2018-06-21T17:09:57.661Z,101979.95
2018-06-21T17:13:01.223Z,101981.15
2018-06-21T17:16:03.648Z,101986.90
2018-06-21T17:19:06.631Z,101987.13
2018-06-21T17:22:09.268Z,101987.75
2018-06-21T17:25:11.819Z,101995.51
2018-06-21T17:28:14.346Z,101998.79
2018-06-21T17:31:16.839Z,102011.88
2018-06-21T17:34:19.407Z,102016.94
2018-06-21T17:37:22.832Z,102019.06
2018-06-21T17:40:25.387Z,102018.92
2018-06-21T17:43:27.780Z,102019.46
2018-06-21T17:46:30.884Z,102030.34
2018-06-21T17:49:33.082Z,102034.06
2018-06-21T17:52:35.437Z,102049.42
2018-06-21T17:55:37.909Z,102039.25
2018-06-21T17:58:39.939Z,102052.38
2018-06-21T18:01:41.975Z,102056.86
2018-06-21T18:04:43.960Z,102064.96
2018-06-21T18:07:46.475Z,102075.88
2018-06-21T18:10:48.562Z,102077.50
2018-06-21T18:13:51.006Z,102078.88
2018-06-21T18:16:53.595Z,102086.83
2018-06-21T18:19:55.994Z,102086.51
2018-06-21T18:22:58.081Z,102097.26
2018-06-21T18:26:01.638Z,102103.51
2018-06-21T18:29:04.166Z,102116.83
2018-06-21T18:32:06.898Z,102121.96
2018-06-21T18:35:09.163Z,102127.43
2018-06-21T18:38:11.719Z,102135.53
2018-06-21T18:41:13.754Z,102148.10
2018-06-21T18:44:16.231Z,102148.56
2018-06-21T18:47:18.779Z,102159.61
2018-06-21T18:50:21.304Z,102164.95
2018-06-21T18:53:24.063Z,102169.87
2018-06-21T18:56:26.356Z,102183.27
2018-06-21T18:59:28.892Z,102189.77
2018-06-21T19:02:31.909Z,102201.87
2018-06-21T19:05:33.872Z,102203.20
2018-06-21T19:08:41.959Z,102211.58
2018-06-21T19:11:50.069Z,102222.65
2018-06-21T19:14:52.371Z,102226.46
2018-06-21T19:17:54.936Z,102231.35
2018-06-21T19:20:57.434Z,102246.69
2018-06-21T19:23:59.511Z,102251.07
2018-06-21T19:27:02.483Z,102256.56
2018-06-21T19:30:05.027Z,102268.33
2018-06-21T19:33:07.599Z,102266.41
2018-06-21T19:36:10.095Z,102282.61
2018-06-21T19:39:12.511Z,102289.17
2018-06-21T19:42:14.524Z,102295.18
2018-06-21T19:45:18.095Z,102306.05
2018-06-21T19:48:21.572Z,102312.63
2018-06-21T19:51:23.619Z,102325.35
2018-06-21T19:54:26.142Z,102328.96
2018-06-21T19:57:28.176Z,102338.40
2018-06-21T20:00:30.553Z,102348.26
2018-06-21T20:03:32.585Z,102347.38
2018-06-21T20:06:34.707Z,102358.02
2018-06-21T20:09:36.768Z,102360.40
2018-06-21T20:12:39.896Z,102366.82
2018-06-21T20:15:47.196Z,102375.63
2018-06-21T20:18:49.330Z,102380.69
2018-06-21T20:21:52.133Z,102386.24
2018-06-21T20:24:54.457Z,102395.27
2018-06-21T20:27:58.605Z,102393.68
2018-06-21T20:31:00.649Z,102399.98
2018-06-21T20:34:03.116Z,102397.39
2018-06-21T20:37:09.781Z,102409.13
2018-06-21T20:40:11.870Z,102413.24
2018-06-21T20:43:13.939Z,102416.52
2018-06-21T20:46:16.158Z,102423.46
2018-06-21T20:49:18.162Z,102421.13
2018-06-21T20:52:26.011Z,102424.72
2018-06-21T20:55:28.027Z,102425.85
2018-06-21T20:58:30.175Z,102431.90
2018-06-21T21:01:32.155Z,102442.84
2018-06-21T21:04:46.400Z,102444.23
2018-06-21T21:07:49.504Z,102447.34
2018-06-21T21:10:52.659Z,102456.55
2018-06-21T21:13:54.611Z,102459.24
2018-06-21T21:16:56.679Z,102459.44
2018-06-21T21:19:58.749Z,102463.06
2018-06-21T21:23:00.804Z,102468.59
2018-06-21T21:26:02.778Z,102471.79
2018-06-21T21:29:04.852Z,102477.76
2018-06-21T21:32:06.863Z,102474.20
2018-06-21T21:35:08.849Z,102480.67
2018-06-21T21:38:11.227Z,102481.30
2018-06-21T21:41:13.331Z,102486.87
2018-06-21T21:44:15.364Z,102488.30
2018-06-21T21:47:17.340Z,102498.73
2018-06-21T21:50:19.452Z,102499.21
2018-06-21T21:53:22.531Z,102502.83
2018-06-21T21:56:24.550Z,102502.26
2018-06-21T21:59:27.567Z,102506.76
2018-06-21T22:02:29.655Z,102515.59
2018-06-21T22:05:31.684Z,102517.99
2018-06-21T22:08:33.700Z,102514.09
2018-06-21T22:11:36.139Z,102517.36
2018-06-21T22:14:38.275Z,102518.33
2018-06-21T22:17:40.356Z,102521.47
2018-06-21T22:20:42.470Z,102521.28
2018-06-21T22:23:44.554Z,102528.91
2018-06-21T22:26:46.575Z,102528.59
2018-06-21T22:29:48.651Z,102525.65
2018-06-21T22:32:50.628Z,102533.14
2018-06-21T22:35:53.401Z,102537.13
2018-06-21T22:38:55.497Z,102546.51
2018-06-21T22:41:57.536Z,102549.66
2018-06-21T22:44:59.641Z,102551.13
2018-06-21T22:48:01.688Z,102553.02
2018-06-21T22:51:03.771Z,102556.87
2018-06-21T22:54:06.403Z,102557.67
2018-06-21T22:57:08.540Z,102552.54
2018-06-21T23:00:10.569Z,102560.97
2018-06-21T23:03:12.667Z,102565.16
2018-06-21T23:06:14.807Z,102567.96
2018-06-21T23:09:16.885Z,102575.86
2018-06-21T23:12:18.951Z,102565.39
2018-06-21T23:15:21.006Z,102566.02
2018-06-21T23:18:34.739Z,102564.35
2018-06-21T23:21:36.824Z,102562.79
2018-06-21T23:24:38.793Z,102572.14
2018-06-21T23:27:40.970Z,102572.46
2018-06-21T23:30:43.015Z,102573.80
2018-06-21T23:33:45.000Z,102575.47
2018-06-21T23:36:47.235Z,102576.31
2018-06-21T23:39:49.361Z,102578.47
2018-06-21T23:42:51.319Z,102580.79
2018-06-21T23:45:54.665Z,102582.12
2018-06-21T23:48:56.653Z,102580.87
2018-06-21T23:51:58.647Z,102586.13
2018-06-21T23:55:00.688Z,102585.86
2018-06-21T23:58:02.612Z,102590.79
